sensor_id;sensor_type;location;lat;lon;timestamp;P1;durP1;ratioP1;P2;durP2;ratioP2
142;SDS011;63667;49.046;8.468;2023-05-19T00:02:02;10.93;;;4.80;;
142;SDS011;63667;49.046;8.468;2023-05-19T00:04:33;12.60;;;5.13;;
142;SDS011;63667;49.046;8.468;2023-05-19T00:07:02;9.37;;;4.43;;
142;SDS011;63667;49.046;8.468;2023-05-19T00:09:33;11.13;;;5.07;;
142;SDS011;63667;49.046;8.468;2023-05-19T00:12:01;11.53;;;4.37;;
142;SDS011;63667;49.046;8.468;2023-05-19T00:14:29;10.33;;;5.27;;
142;SDS011;63667;49.046;8.468;2023-05-19T00:16:57;11.67;;;4.60;;
142;SDS011;63667;49.046;8.468;2023-05-19T00:19:26;10.50;;;4.77;;
142;SDS011;63667;49.046;8.468;2023-05-19T00:21:57;6.30;;;4.70;;
142;SDS011;63667;49.046;8.468;2023-05-19T00:24:25;8.97;;;5.30;;
142;SDS011;63667;49.046;8.468;2023-05-19T00:26:52;8.67;;;4.53;;
142;SDS011;63667;49.046;8.468;2023-05-19T00:29:19;9.90;;;4.40;;
142;SDS011;63667;49.046;8.468;2023-05-19T00:31:47;11.30;;;4.70;;
142;SDS011;63667;49.046;8.468;2023-05-19T00:34:15;7.10;;;4.63;;
142;SDS011;63667;49.046;8.468;2023-05-19T00:36:42;8.70;;;4.43;;
142;SDS011;63667;49.046;8.468;2023-05-19T00:39:09;14.87;;;5.00;;
142;SDS011;63667;49.046;8.468;2023-05-19T00:41:37;10.83;;;5.10;;
142;SDS011;63667;49.046;8.468;2023-05-19T00:44:03;13.03;;;5.17;;
142;SDS011;63667;49.046;8.468;2023-05-19T00:46:31;9.77;;;4.80;;
142;SDS011;63667;49.046;8.468;2023-05-19T00:48:59;9.87;;;5.33;;
142;SDS011;63667;49.046;8.468;2023-05-19T00:51:26;14.50;;;5.10;;
142;SDS011;63667;49.046;8.468;2023-05-19T00:53:55;11.10;;;4.80;;
142;SDS011;63667;49.046;8.468;2023-05-19T00:56:22;8.13;;;4.70;;
142;SDS011;63667;49.046;8.468;2023-05-19T00:58:51;9.57;;;4.83;;
142;SDS011;63667;49.046;8.468;2023-05-19T01:01:18;6.93;;;5.00;;
142;SDS011;63667;49.046;8.468;2023-05-19T01:03:46;8.73;;;4.80;;
142;SDS011;63667;49.046;8.468;2023-05-19T01:06:13;13.30;;;5.07;;
142;SDS011;63667;49.046;8.468;2023-05-19T01:08:43;13.17;;;5.00;;
142;SDS011;63667;49.046;8.468;2023-05-19T01:11:11;10.53;;;5.30;;
142;SDS011;63667;49.046;8.468;2023-05-19T01:13:37;12.90;;;5.87;;
142;SDS011;63667;49.046;8.468;2023-05-19T01:16:13;9.23;;;5.40;;
142;SDS011;63667;49.046;8.468;2023-05-19T01:18:49;11.17;;;5.73;;
142;SDS011;63667;49.046;8.468;2023-05-19T01:21:39;19.60;;;6.20;;
142;SDS011;63667;49.046;8.468;2023-05-19T01:32:35;12.57;;;5.73;;
142;SDS011;63667;49.046;8.468;2023-05-19T01:35:03;9.60;;;5.83;;
142;SDS011;63667;49.046;8.468;2023-05-19T01:37:31;10.10;;;5.63;;
142;SDS011;63667;49.046;8.468;2023-05-19T01:39:59;11.80;;;6.30;;
142;SDS011;63667;49.046;8.468;2023-05-19T01:42:26;13.50;;;5.93;;
142;SDS011;63667;49.046;8.468;2023-05-19T01:44:54;12.33;;;6.27;;
142;SDS011;63667;49.046;8.468;2023-05-19T01:47:22;8.93;;;6.90;;
142;SDS011;63667;49.046;8.468;2023-05-19T01:49:48;19.67;;;6.43;;
142;SDS011;63667;49.046;8.468;2023-05-19T01:52:16;9.20;;;5.97;;
142;SDS011;63667;49.046;8.468;2023-05-19T01:54:43;9.00;;;5.60;;
142;SDS011;63667;49.046;8.468;2023-05-19T01:59:46;12.93;;;6.20;;
142;SDS011;63667;49.046;8.468;2023-05-19T02:02:24;14.47;;;6.30;;
142;SDS011;63667;49.046;8.468;2023-05-19T02:04:56;14.53;;;6.07;;
142;SDS011;63667;49.046;8.468;2023-05-19T02:07:40;14.67;;;6.13;;
142;SDS011;63667;49.046;8.468;2023-05-19T02:10:13;12.03;;;6.60;;
142;SDS011;63667;49.046;8.468;2023-05-19T02:12:42;10.50;;;6.20;;
142;SDS011;63667;49.046;8.468;2023-05-19T02:17:39;7.40;;;5.50;;
142;SDS011;63667;49.046;8.468;2023-05-19T02:20:07;11.13;;;6.17;;
142;SDS011;63667;49.046;8.468;2023-05-19T02:22:35;10.07;;;6.50;;
142;SDS011;63667;49.046;8.468;2023-05-19T02:25:02;8.10;;;5.80;;
142;SDS011;63667;49.046;8.468;2023-05-19T02:27:30;15.70;;;6.47;;
142;SDS011;63667;49.046;8.468;2023-05-19T02:29:56;10.73;;;5.83;;
142;SDS011;63667;49.046;8.468;2023-05-19T02:32:24;8.60;;;5.90;;
142;SDS011;63667;49.046;8.468;2023-05-19T02:34:51;19.23;;;6.40;;
142;SDS011;63667;49.046;8.468;2023-05-19T02:37:21;10.33;;;6.40;;
142;SDS011;63667;49.046;8.468;2023-05-19T02:39:49;8.90;;;5.93;;
142;SDS011;63667;49.046;8.468;2023-05-19T02:42:16;8.10;;;5.97;;
142;SDS011;63667;49.046;8.468;2023-05-19T02:44:44;11.60;;;5.93;;
142;SDS011;63667;49.046;8.468;2023-05-19T02:47:12;9.40;;;6.63;;
142;SDS011;63667;49.046;8.468;2023-05-19T02:49:39;9.93;;;5.87;;
142;SDS011;63667;49.046;8.468;2023-05-19T02:52:07;10.07;;;6.23;;
142;SDS011;63667;49.046;8.468;2023-05-19T02:54:35;10.87;;;5.80;;
142;SDS011;63667;49.046;8.468;2023-05-19T02:57:02;12.73;;;6.93;;
142;SDS011;63667;49.046;8.468;2023-05-19T02:59:30;13.43;;;6.40;;
142;SDS011;63667;49.046;8.468;2023-05-19T03:02:00;9.33;;;6.30;;
142;SDS011;63667;49.046;8.468;2023-05-19T03:04:28;10.33;;;6.30;;
142;SDS011;63667;49.046;8.468;2023-05-19T03:06:55;10.77;;;6.90;;
142;SDS011;63667;49.046;8.468;2023-05-19T03:09:22;11.37;;;6.43;;
142;SDS011;63667;49.046;8.468;2023-05-19T03:11:50;11.93;;;6.77;;
142;SDS011;63667;49.046;8.468;2023-05-19T03:14:17;10.20;;;6.07;;
142;SDS011;63667;49.046;8.468;2023-05-19T03:16:48;10.93;;;6.00;;
142;SDS011;63667;49.046;8.468;2023-05-19T03:19:16;9.37;;;6.43;;
142;SDS011;63667;49.046;8.468;2023-05-19T03:21:43;13.13;;;6.30;;
142;SDS011;63667;49.046;8.468;2023-05-19T03:24:11;12.40;;;7.33;;
142;SDS011;63667;49.046;8.468;2023-05-19T03:26:38;24.23;;;7.37;;
142;SDS011;63667;49.046;8.468;2023-05-19T03:29:06;17.63;;;6.30;;
142;SDS011;63667;49.046;8.468;2023-05-19T03:31:33;11.83;;;7.03;;
142;SDS011;63667;49.046;8.468;2023-05-19T03:34:00;11.07;;;5.97;;
142;SDS011;63667;49.046;8.468;2023-05-19T03:36:28;10.73;;;6.67;;
142;SDS011;63667;49.046;8.468;2023-05-19T03:39:06;17.70;;;6.60;;
142;SDS011;63667;49.046;8.468;2023-05-19T03:41:51;15.13;;;7.57;;
142;SDS011;63667;49.046;8.468;2023-05-19T03:44:18;12.00;;;6.43;;
142;SDS011;63667;49.046;8.468;2023-05-19T03:46:45;13.50;;;7.37;;
142;SDS011;63667;49.046;8.468;2023-05-19T03:49:12;15.83;;;7.27;;
142;SDS011;63667;49.046;8.468;2023-05-19T03:51:40;10.17;;;6.50;;
142;SDS011;63667;49.046;8.468;2023-05-19T03:54:09;16.03;;;6.93;;
142;SDS011;63667;49.046;8.468;2023-05-19T03:56:37;14.03;;;7.00;;
142;SDS011;63667;49.046;8.468;2023-05-19T03:59:04;11.07;;;7.20;;
142;SDS011;63667;49.046;8.468;2023-05-19T04:01:32;11.13;;;7.70;;
142;SDS011;63667;49.046;8.468;2023-05-19T04:04:01;11.47;;;7.40;;
142;SDS011;63667;49.046;8.468;2023-05-19T04:06:29;13.47;;;7.10;;
142;SDS011;63667;49.046;8.468;2023-05-19T04:08:55;13.83;;;7.13;;
142;SDS011;63667;49.046;8.468;2023-05-19T04:11:22;10.10;;;7.30;;
142;SDS011;63667;49.046;8.468;2023-05-19T04:13:49;23.40;;;7.20;;
142;SDS011;63667;49.046;8.468;2023-05-19T04:16:17;15.03;;;7.63;;
142;SDS011;63667;49.046;8.468;2023-05-19T04:18:44;9.90;;;7.00;;
142;SDS011;63667;49.046;8.468;2023-05-19T04:21:11;14.40;;;7.30;;
142;SDS011;63667;49.046;8.468;2023-05-19T04:23:38;12.80;;;7.13;;
142;SDS011;63667;49.046;8.468;2023-05-19T04:26:06;16.60;;;6.90;;
142;SDS011;63667;49.046;8.468;2023-05-19T04:28:33;16.93;;;7.60;;
142;SDS011;63667;49.046;8.468;2023-05-19T04:31:04;17.87;;;7.77;;
142;SDS011;63667;49.046;8.468;2023-05-19T04:33:38;14.10;;;7.90;;
142;SDS011;63667;49.046;8.468;2023-05-19T04:36:06;12.03;;;7.93;;
142;SDS011;63667;49.046;8.468;2023-05-19T04:38:35;11.03;;;7.70;;
142;SDS011;63667;49.046;8.468;2023-05-19T04:41:02;12.37;;;7.60;;
142;SDS011;63667;49.046;8.468;2023-05-19T04:43:29;13.20;;;7.70;;
142;SDS011;63667;49.046;8.468;2023-05-19T04:45:56;13.57;;;8.13;;
142;SDS011;63667;49.046;8.468;2023-05-19T04:48:23;12.00;;;7.40;;
142;SDS011;63667;49.046;8.468;2023-05-19T04:50:50;14.23;;;7.77;;
142;SDS011;63667;49.046;8.468;2023-05-19T04:53:18;12.53;;;7.50;;
142;SDS011;63667;49.046;8.468;2023-05-19T04:55:46;10.27;;;7.50;;
142;SDS011;63667;49.046;8.468;2023-05-19T04:58:15;10.73;;;7.20;;
142;SDS011;63667;49.046;8.468;2023-05-19T05:00:44;14.67;;;7.53;;
142;SDS011;63667;49.046;8.468;2023-05-19T05:03:11;12.17;;;7.80;;
142;SDS011;63667;49.046;8.468;2023-05-19T05:05:40;14.03;;;7.37;;
142;SDS011;63667;49.046;8.468;2023-05-19T05:08:08;11.57;;;7.50;;
142;SDS011;63667;49.046;8.468;2023-05-19T05:10:36;15.90;;;7.50;;
142;SDS011;63667;49.046;8.468;2023-05-19T05:13:03;13.27;;;7.33;;
142;SDS011;63667;49.046;8.468;2023-05-19T05:15:30;12.10;;;7.33;;
142;SDS011;63667;49.046;8.468;2023-05-19T05:17:57;11.07;;;7.00;;
142;SDS011;63667;49.046;8.468;2023-05-19T05:20:25;10.17;;;6.90;;
142;SDS011;63667;49.046;8.468;2023-05-19T05:22:54;14.67;;;6.87;;
142;SDS011;63667;49.046;8.468;2023-05-19T05:25:25;10.07;;;7.20;;
142;SDS011;63667;49.046;8.468;2023-05-19T05:27:53;12.10;;;7.20;;
142;SDS011;63667;49.046;8.468;2023-05-19T05:30:21;10.10;;;6.30;;
142;SDS011;63667;49.046;8.468;2023-05-19T05:32:48;11.37;;;7.60;;
142;SDS011;63667;49.046;8.468;2023-05-19T05:35:16;14.00;;;7.63;;
142;SDS011;63667;49.046;8.468;2023-05-19T05:37:44;19.03;;;7.50;;
142;SDS011;63667;49.046;8.468;2023-05-19T05:40:11;15.83;;;7.17;;
142;SDS011;63667;49.046;8.468;2023-05-19T05:42:40;11.43;;;6.93;;
142;SDS011;63667;49.046;8.468;2023-05-19T05:45:07;16.53;;;7.17;;
142;SDS011;63667;49.046;8.468;2023-05-19T05:47:34;18.40;;;7.90;;
142;SDS011;63667;49.046;8.468;2023-05-19T05:50:03;12.20;;;7.57;;
142;SDS011;63667;49.046;8.468;2023-05-19T05:52:32;12.73;;;7.37;;
142;SDS011;63667;49.046;8.468;2023-05-19T05:54:59;8.67;;;6.90;;
142;SDS011;63667;49.046;8.468;2023-05-19T05:57:27;17.87;;;8.40;;
142;SDS011;63667;49.046;8.468;2023-05-19T05:59:55;15.63;;;7.93;;
142;SDS011;63667;49.046;8.468;2023-05-19T06:02:23;13.27;;;7.07;;
142;SDS011;63667;49.046;8.468;2023-05-19T06:04:50;12.07;;;7.63;;
142;SDS011;63667;49.046;8.468;2023-05-19T06:07:18;12.10;;;7.77;;
142;SDS011;63667;49.046;8.468;2023-05-19T06:09:45;14.30;;;7.77;;
142;SDS011;63667;49.046;8.468;2023-05-19T06:12:12;17.80;;;6.80;;
142;SDS011;63667;49.046;8.468;2023-05-19T06:14:39;14.97;;;7.27;;
142;SDS011;63667;49.046;8.468;2023-05-19T06:17:06;14.07;;;6.63;;
142;SDS011;63667;49.046;8.468;2023-05-19T06:19:32;14.30;;;6.93;;
142;SDS011;63667;49.046;8.468;2023-05-19T06:21:59;13.00;;;6.77;;
142;SDS011;63667;49.046;8.468;2023-05-19T06:24:26;15.00;;;6.73;;
142;SDS011;63667;49.046;8.468;2023-05-19T06:26:54;14.57;;;7.17;;
142;SDS011;63667;49.046;8.468;2023-05-19T06:29:21;10.60;;;6.53;;
142;SDS011;63667;49.046;8.468;2023-05-19T06:31:49;12.07;;;6.23;;
142;SDS011;63667;49.046;8.468;2023-05-19T06:34:16;13.27;;;6.10;;
142;SDS011;63667;49.046;8.468;2023-05-19T06:36:43;10.93;;;6.37;;
142;SDS011;63667;49.046;8.468;2023-05-19T06:39:09;13.33;;;6.90;;
142;SDS011;63667;49.046;8.468;2023-05-19T06:41:36;8.20;;;6.13;;
142;SDS011;63667;49.046;8.468;2023-05-19T06:44:05;10.20;;;5.93;;
142;SDS011;63667;49.046;8.468;2023-05-19T06:46:32;13.50;;;6.00;;
142;SDS011;63667;49.046;8.468;2023-05-19T06:48:58;7.30;;;5.43;;
142;SDS011;63667;49.046;8.468;2023-05-19T06:51:25;9.37;;;5.13;;
142;SDS011;63667;49.046;8.468;2023-05-19T06:53:53;10.47;;;4.97;;
142;SDS011;63667;49.046;8.468;2023-05-19T06:56:19;12.40;;;5.00;;
142;SDS011;63667;49.046;8.468;2023-05-19T06:58:47;8.17;;;5.60;;
142;SDS011;63667;49.046;8.468;2023-05-19T07:01:13;13.10;;;5.47;;
142;SDS011;63667;49.046;8.468;2023-05-19T07:03:40;10.13;;;4.67;;
142;SDS011;63667;49.046;8.468;2023-05-19T07:06:06;7.60;;;4.57;;
142;SDS011;63667;49.046;8.468;2023-05-19T07:08:33;8.13;;;4.53;;
142;SDS011;63667;49.046;8.468;2023-05-19T07:11:01;8.53;;;3.90;;
142;SDS011;63667;49.046;8.468;2023-05-19T07:13:27;6.87;;;4.60;;
142;SDS011;63667;49.046;8.468;2023-05-19T07:15:54;6.10;;;3.70;;
142;SDS011;63667;49.046;8.468;2023-05-19T07:18:20;8.30;;;4.40;;
142;SDS011;63667;49.046;8.468;2023-05-19T07:20:47;8.80;;;5.00;;
142;SDS011;63667;49.046;8.468;2023-05-19T07:23:14;7.30;;;4.63;;
142;SDS011;63667;49.046;8.468;2023-05-19T07:25:40;7.80;;;4.57;;
142;SDS011;63667;49.046;8.468;2023-05-19T07:28:07;10.17;;;4.83;;
142;SDS011;63667;49.046;8.468;2023-05-19T07:30:33;9.17;;;4.70;;
142;SDS011;63667;49.046;8.468;2023-05-19T07:33:00;8.10;;;4.53;;
142;SDS011;63667;49.046;8.468;2023-05-19T07:35:26;12.23;;;4.80;;
142;SDS011;63667;49.046;8.468;2023-05-19T07:37:52;12.93;;;4.50;;
142;SDS011;63667;49.046;8.468;2023-05-19T07:40:19;7.63;;;4.33;;
142;SDS011;63667;49.046;8.468;2023-05-19T07:42:46;7.43;;;4.50;;
142;SDS011;63667;49.046;8.468;2023-05-19T07:45:13;16.50;;;5.20;;
142;SDS011;63667;49.046;8.468;2023-05-19T07:47:39;9.00;;;4.80;;
142;SDS011;63667;49.046;8.468;2023-05-19T07:50:06;12.63;;;4.57;;
142;SDS011;63667;49.046;8.468;2023-05-19T07:52:32;8.87;;;4.80;;
142;SDS011;63667;49.046;8.468;2023-05-19T07:54:59;18.47;;;4.67;;
142;SDS011;63667;49.046;8.468;2023-05-19T07:57:26;12.70;;;4.93;;
142;SDS011;63667;49.046;8.468;2023-05-19T07:59:52;15.17;;;5.30;;
142;SDS011;63667;49.046;8.468;2023-05-19T08:02:18;9.30;;;4.80;;
142;SDS011;63667;49.046;8.468;2023-05-19T08:04:45;8.33;;;4.67;;
142;SDS011;63667;49.046;8.468;2023-05-19T08:07:13;8.40;;;4.77;;
142;SDS011;63667;49.046;8.468;2023-05-19T08:09:39;9.10;;;4.60;;
142;SDS011;63667;49.046;8.468;2023-05-19T08:12:05;10.77;;;4.87;;
142;SDS011;63667;49.046;8.468;2023-05-19T08:14:33;9.93;;;4.60;;
142;SDS011;63667;49.046;8.468;2023-05-19T08:16:59;12.30;;;4.87;;
142;SDS011;63667;49.046;8.468;2023-05-19T08:19:26;10.67;;;4.53;;
142;SDS011;63667;49.046;8.468;2023-05-19T08:21:52;9.90;;;4.67;;
142;SDS011;63667;49.046;8.468;2023-05-19T08:24:20;8.37;;;4.50;;
142;SDS011;63667;49.046;8.468;2023-05-19T08:26:46;10.03;;;4.27;;
142;SDS011;63667;49.046;8.468;2023-05-19T08:29:14;17.13;;;5.37;;
142;SDS011;63667;49.046;8.468;2023-05-19T08:31:40;9.70;;;5.13;;
142;SDS011;63667;49.046;8.468;2023-05-19T08:34:07;15.03;;;5.07;;
142;SDS011;63667;49.046;8.468;2023-05-19T08:36:33;15.47;;;5.03;;
142;SDS011;63667;49.046;8.468;2023-05-19T08:39:00;14.23;;;4.90;;
142;SDS011;63667;49.046;8.468;2023-05-19T08:41:26;23.17;;;5.60;;
142;SDS011;63667;49.046;8.468;2023-05-19T08:43:53;11.70;;;4.47;;
142;SDS011;63667;49.046;8.468;2023-05-19T08:46:19;6.67;;;4.57;;
142;SDS011;63667;49.046;8.468;2023-05-19T08:48:48;13.93;;;4.60;;
142;SDS011;63667;49.046;8.468;2023-05-19T08:54:08;9.00;;;4.63;;
142;SDS011;63667;49.046;8.468;2023-05-19T08:56:38;9.83;;;4.60;;
142;SDS011;63667;49.046;8.468;2023-05-19T08:59:05;12.23;;;4.90;;
142;SDS011;63667;49.046;8.468;2023-05-19T09:01:32;10.53;;;4.50;;
142;SDS011;63667;49.046;8.468;2023-05-19T09:03:58;8.03;;;4.30;;
142;SDS011;63667;49.046;8.468;2023-05-19T09:06:25;10.47;;;4.87;;
142;SDS011;63667;49.046;8.468;2023-05-19T09:08:51;16.00;;;4.77;;
142;SDS011;63667;49.046;8.468;2023-05-19T09:11:18;8.17;;;3.93;;
142;SDS011;63667;49.046;8.468;2023-05-19T09:13:44;9.10;;;4.60;;
142;SDS011;63667;49.046;8.468;2023-05-19T09:16:11;11.97;;;4.70;;
142;SDS011;63667;49.046;8.468;2023-05-19T09:18:37;6.70;;;4.43;;
142;SDS011;63667;49.046;8.468;2023-05-19T09:21:05;8.57;;;4.27;;
142;SDS011;63667;49.046;8.468;2023-05-19T09:23:32;6.47;;;4.20;;
142;SDS011;63667;49.046;8.468;2023-05-19T09:26:03;10.50;;;4.40;;
142;SDS011;63667;49.046;8.468;2023-05-19T09:28:32;13.50;;;4.67;;
142;SDS011;63667;49.046;8.468;2023-05-19T09:33:25;7.13;;;4.67;;
142;SDS011;63667;49.046;8.468;2023-05-19T09:35:53;9.13;;;4.13;;
142;SDS011;63667;49.046;8.468;2023-05-19T09:38:23;8.57;;;4.20;;
142;SDS011;63667;49.046;8.468;2023-05-19T09:41:00;6.60;;;4.30;;
142;SDS011;63667;49.046;8.468;2023-05-19T09:43:30;10.57;;;4.27;;
142;SDS011;63667;49.046;8.468;2023-05-19T09:46:04;10.20;;;4.60;;
142;SDS011;63667;49.046;8.468;2023-05-19T09:48:32;11.00;;;4.00;;
142;SDS011;63667;49.046;8.468;2023-05-19T09:50:59;7.70;;;4.43;;
142;SDS011;63667;49.046;8.468;2023-05-19T09:53:28;8.63;;;3.80;;
142;SDS011;63667;49.046;8.468;2023-05-19T09:55:55;6.73;;;3.80;;
142;SDS011;63667;49.046;8.468;2023-05-19T09:58:22;12.30;;;4.30;;
142;SDS011;63667;49.046;8.468;2023-05-19T10:00:49;9.63;;;4.83;;
142;SDS011;63667;49.046;8.468;2023-05-19T10:03:16;6.37;;;3.83;;
142;SDS011;63667;49.046;8.468;2023-05-19T10:05:45;9.70;;;4.20;;
142;SDS011;63667;49.046;8.468;2023-05-19T10:08:12;8.23;;;4.83;;
142;SDS011;63667;49.046;8.468;2023-05-19T10:10:42;9.97;;;4.47;;
142;SDS011;63667;49.046;8.468;2023-05-19T10:13:10;5.10;;;4.10;;
142;SDS011;63667;49.046;8.468;2023-05-19T10:15:38;6.97;;;3.60;;
142;SDS011;63667;49.046;8.468;2023-05-19T10:18:05;8.00;;;4.20;;
142;SDS011;63667;49.046;8.468;2023-05-19T10:20:32;6.97;;;4.00;;
142;SDS011;63667;49.046;8.468;2023-05-19T10:22:59;7.27;;;3.97;;
142;SDS011;63667;49.046;8.468;2023-05-19T10:25:27;9.00;;;3.80;;
142;SDS011;63667;49.046;8.468;2023-05-19T10:30:30;8.20;;;4.73;;
142;SDS011;63667;49.046;8.468;2023-05-19T10:32:58;9.30;;;4.53;;
142;SDS011;63667;49.046;8.468;2023-05-19T10:35:34;7.70;;;4.23;;
142;SDS011;63667;49.046;8.468;2023-05-19T10:38:05;8.90;;;4.27;;
142;SDS011;63667;49.046;8.468;2023-05-19T10:45:47;10.93;;;4.43;;
142;SDS011;63667;49.046;8.468;2023-05-19T10:48:17;8.50;;;4.60;;
142;SDS011;63667;49.046;8.468;2023-05-19T10:50:45;7.60;;;4.50;;
142;SDS011;63667;49.046;8.468;2023-05-19T10:53:13;12.17;;;4.40;;
142;SDS011;63667;49.046;8.468;2023-05-19T10:55:43;8.57;;;4.40;;
142;SDS011;63667;49.046;8.468;2023-05-19T10:58:12;8.73;;;4.53;;
142;SDS011;63667;49.046;8.468;2023-05-19T11:00:39;9.60;;;4.47;;
142;SDS011;63667;49.046;8.468;2023-05-19T11:03:13;6.53;;;4.53;;
142;SDS011;63667;49.046;8.468;2023-05-19T11:05:46;9.13;;;4.50;;
142;SDS011;63667;49.046;8.468;2023-05-19T11:08:15;13.43;;;5.20;;
142;SDS011;63667;49.046;8.468;2023-05-19T11:10:43;11.60;;;4.53;;
142;SDS011;63667;49.046;8.468;2023-05-19T11:13:19;10.03;;;4.60;;
142;SDS011;63667;49.046;8.468;2023-05-19T11:15:47;5.63;;;4.20;;
142;SDS011;63667;49.046;8.468;2023-05-19T11:18:14;9.70;;;4.97;;
142;SDS011;63667;49.046;8.468;2023-05-19T11:20:42;14.93;;;4.53;;
142;SDS011;63667;49.046;8.468;2023-05-19T11:23:13;7.87;;;3.90;;
142;SDS011;63667;49.046;8.468;2023-05-19T11:28:10;6.00;;;3.90;;
142;SDS011;63667;49.046;8.468;2023-05-19T11:30:40;6.30;;;4.30;;
142;SDS011;63667;49.046;8.468;2023-05-19T11:33:08;9.37;;;3.90;;
142;SDS011;63667;49.046;8.468;2023-05-19T11:35:35;7.97;;;4.00;;
142;SDS011;63667;49.046;8.468;2023-05-19T11:38:03;10.00;;;4.13;;
142;SDS011;63667;49.046;8.468;2023-05-19T11:40:31;5.37;;;3.50;;
142;SDS011;63667;49.046;8.468;2023-05-19T11:42:58;10.60;;;4.10;;
142;SDS011;63667;49.046;8.468;2023-05-19T11:45:27;7.97;;;4.43;;
142;SDS011;63667;49.046;8.468;2023-05-19T11:47:54;6.00;;;3.90;;
142;SDS011;63667;49.046;8.468;2023-05-19T11:50:22;7.10;;;4.20;;
142;SDS011;63667;49.046;8.468;2023-05-19T11:52:50;8.40;;;3.90;;
142;SDS011;63667;49.046;8.468;2023-05-19T11:55:18;4.73;;;3.77;;
142;SDS011;63667;49.046;8.468;2023-05-19T12:00:24;5.97;;;4.03;;
142;SDS011;63667;49.046;8.468;2023-05-19T12:02:50;7.20;;;3.90;;
142;SDS011;63667;49.046;8.468;2023-05-19T12:05:21;7.40;;;3.70;;
142;SDS011;63667;49.046;8.468;2023-05-19T12:07:50;8.60;;;4.33;;
142;SDS011;63667;49.046;8.468;2023-05-19T12:10:20;5.60;;;3.80;;
142;SDS011;63667;49.046;8.468;2023-05-19T12:12:47;6.13;;;3.70;;
142;SDS011;63667;49.046;8.468;2023-05-19T12:15:21;8.47;;;4.33;;
142;SDS011;63667;49.046;8.468;2023-05-19T12:17:57;8.40;;;5.30;;
142;SDS011;63667;49.046;8.468;2023-05-19T12:20:25;10.47;;;4.40;;
142;SDS011;63667;49.046;8.468;2023-05-19T12:22:55;7.00;;;4.17;;
142;SDS011;63667;49.046;8.468;2023-05-19T12:25:39;8.70;;;4.43;;
142;SDS011;63667;49.046;8.468;2023-05-19T12:28:06;7.03;;;4.60;;
142;SDS011;63667;49.046;8.468;2023-05-19T12:30:33;11.60;;;4.20;;
142;SDS011;63667;49.046;8.468;2023-05-19T12:33:01;7.13;;;5.03;;
142;SDS011;63667;49.046;8.468;2023-05-19T12:35:29;8.77;;;4.43;;
142;SDS011;63667;49.046;8.468;2023-05-19T12:38:17;6.80;;;4.80;;
142;SDS011;63667;49.046;8.468;2023-05-19T12:40:45;7.03;;;4.70;;
142;SDS011;63667;49.046;8.468;2023-05-19T12:43:23;16.13;;;4.97;;
142;SDS011;63667;49.046;8.468;2023-05-19T12:46:10;6.60;;;4.83;;
142;SDS011;63667;49.046;8.468;2023-05-19T12:48:41;12.73;;;5.13;;
142;SDS011;63667;49.046;8.468;2023-05-19T12:51:09;5.87;;;4.40;;
142;SDS011;63667;49.046;8.468;2023-05-19T12:53:36;9.90;;;4.60;;
142;SDS011;63667;49.046;8.468;2023-05-19T12:56:13;5.50;;;4.30;;
142;SDS011;63667;49.046;8.468;2023-05-19T12:58:42;10.60;;;4.87;;
142;SDS011;63667;49.046;8.468;2023-05-19T13:01:17;8.83;;;4.50;;
142;SDS011;63667;49.046;8.468;2023-05-19T13:03:44;9.60;;;5.07;;
142;SDS011;63667;49.046;8.468;2023-05-19T13:06:11;13.03;;;4.87;;
142;SDS011;63667;49.046;8.468;2023-05-19T13:08:39;8.60;;;4.47;;
142;SDS011;63667;49.046;8.468;2023-05-19T13:11:06;13.90;;;4.90;;
142;SDS011;63667;49.046;8.468;2023-05-19T13:13:33;8.67;;;4.87;;
142;SDS011;63667;49.046;8.468;2023-05-19T13:16:00;7.60;;;4.80;;
142;SDS011;63667;49.046;8.468;2023-05-19T13:18:28;9.80;;;4.93;;
142;SDS011;63667;49.046;8.468;2023-05-19T13:20:57;7.90;;;4.87;;
142;SDS011;63667;49.046;8.468;2023-05-19T13:23:24;15.13;;;5.43;;
142;SDS011;63667;49.046;8.468;2023-05-19T13:25:52;9.57;;;5.17;;
142;SDS011;63667;49.046;8.468;2023-05-19T13:28:19;12.63;;;5.30;;
142;SDS011;63667;49.046;8.468;2023-05-19T13:30:46;10.30;;;4.60;;
142;SDS011;63667;49.046;8.468;2023-05-19T13:33:14;11.83;;;4.93;;
142;SDS011;63667;49.046;8.468;2023-05-19T13:35:41;6.50;;;4.57;;
142;SDS011;63667;49.046;8.468;2023-05-19T13:38:09;10.13;;;5.20;;
142;SDS011;63667;49.046;8.468;2023-05-19T13:40:36;16.97;;;5.23;;
142;SDS011;63667;49.046;8.468;2023-05-19T13:43:04;7.07;;;4.80;;
142;SDS011;63667;49.046;8.468;2023-05-19T13:45:32;9.13;;;5.10;;
142;SDS011;63667;49.046;8.468;2023-05-19T13:47:59;8.60;;;4.63;;
142;SDS011;63667;49.046;8.468;2023-05-19T13:50:26;8.67;;;5.30;;
142;SDS011;63667;49.046;8.468;2023-05-19T13:52:54;9.77;;;5.37;;
142;SDS011;63667;49.046;8.468;2023-05-19T13:55:21;9.17;;;5.00;;
142;SDS011;63667;49.046;8.468;2023-05-19T13:57:48;8.93;;;5.10;;
142;SDS011;63667;49.046;8.468;2023-05-19T14:00:15;6.70;;;4.93;;
142;SDS011;63667;49.046;8.468;2023-05-19T14:02:44;6.40;;;5.17;;
142;SDS011;63667;49.046;8.468;2023-05-19T14:05:11;8.50;;;4.90;;
142;SDS011;63667;49.046;8.468;2023-05-19T14:07:38;9.70;;;5.40;;
142;SDS011;63667;49.046;8.468;2023-05-19T14:10:07;14.27;;;5.80;;
142;SDS011;63667;49.046;8.468;2023-05-19T14:12:35;18.80;;;5.40;;
142;SDS011;63667;49.046;8.468;2023-05-19T14:15:03;9.77;;;5.13;;
142;SDS011;63667;49.046;8.468;2023-05-19T14:17:31;9.67;;;5.27;;
142;SDS011;63667;49.046;8.468;2023-05-19T14:19:58;7.40;;;4.90;;
142;SDS011;63667;49.046;8.468;2023-05-19T14:22:26;10.00;;;4.90;;
142;SDS011;63667;49.046;8.468;2023-05-19T14:24:53;11.73;;;4.57;;
142;SDS011;63667;49.046;8.468;2023-05-19T14:27:21;8.07;;;5.30;;
142;SDS011;63667;49.046;8.468;2023-05-19T14:29:48;10.40;;;5.10;;
142;SDS011;63667;49.046;8.468;2023-05-19T14:32:16;6.40;;;5.03;;
142;SDS011;63667;49.046;8.468;2023-05-19T14:34:44;9.37;;;4.60;;
142;SDS011;63667;49.046;8.468;2023-05-19T14:37:11;7.87;;;4.77;;
142;SDS011;63667;49.046;8.468;2023-05-19T14:39:38;8.17;;;5.00;;
142;SDS011;63667;49.046;8.468;2023-05-19T14:42:06;7.70;;;4.57;;
142;SDS011;63667;49.046;8.468;2023-05-19T14:44:33;7.00;;;4.13;;
142;SDS011;63667;49.046;8.468;2023-05-19T14:47:02;6.33;;;4.40;;
142;SDS011;63667;49.046;8.468;2023-05-19T14:49:32;6.93;;;4.27;;
142;SDS011;63667;49.046;8.468;2023-05-19T14:51:59;7.10;;;4.40;;
142;SDS011;63667;49.046;8.468;2023-05-19T14:54:26;8.50;;;4.50;;
142;SDS011;63667;49.046;8.468;2023-05-19T14:56:53;9.00;;;4.57;;
142;SDS011;63667;49.046;8.468;2023-05-19T14:59:21;7.30;;;4.77;;
142;SDS011;63667;49.046;8.468;2023-05-19T15:01:47;13.13;;;4.90;;
142;SDS011;63667;49.046;8.468;2023-05-19T15:04:15;6.33;;;4.43;;
142;SDS011;63667;49.046;8.468;2023-05-19T15:06:43;11.33;;;5.00;;
142;SDS011;63667;49.046;8.468;2023-05-19T15:09:10;10.90;;;5.30;;
142;SDS011;63667;49.046;8.468;2023-05-19T15:11:39;11.47;;;5.20;;
142;SDS011;63667;49.046;8.468;2023-05-19T15:14:06;7.43;;;5.00;;
142;SDS011;63667;49.046;8.468;2023-05-19T15:16:34;8.83;;;5.47;;
142;SDS011;63667;49.046;8.468;2023-05-19T15:19:01;8.33;;;4.87;;
142;SDS011;63667;49.046;8.468;2023-05-19T15:21:28;10.07;;;4.83;;
142;SDS011;63667;49.046;8.468;2023-05-19T15:23:56;8.43;;;4.80;;
142;SDS011;63667;49.046;8.468;2023-05-19T15:26:23;13.87;;;4.63;;
142;SDS011;63667;49.046;8.468;2023-05-19T15:28:51;15.93;;;4.97;;
142;SDS011;63667;49.046;8.468;2023-05-19T15:31:18;7.33;;;4.90;;
142;SDS011;63667;49.046;8.468;2023-05-19T15:33:46;9.40;;;4.90;;
142;SDS011;63667;49.046;8.468;2023-05-19T15:36:14;9.47;;;4.63;;
142;SDS011;63667;49.046;8.468;2023-05-19T15:38:41;7.30;;;4.50;;
142;SDS011;63667;49.046;8.468;2023-05-19T15:41:09;6.17;;;4.20;;
142;SDS011;63667;49.046;8.468;2023-05-19T15:43:36;7.73;;;4.70;;
142;SDS011;63667;49.046;8.468;2023-05-19T15:46:03;11.70;;;4.83;;